sensor_id;sensor_type;location;lat;lon;timestamp;pressure;altitude;pressure_sealevel;temperature
70819;BMP280;58439;51.046;13.692;2023-04-08T00:01:04;100350.75;;;4.95
70819;BMP280;58439;51.046;13.692;2023-04-08T00:03:31;100342.16;;;4.94
70819;BMP280;58439;51.046;13.692;2023-04-08T00:05:59;100334.69;;;4.91
70819;BMP280;58439;51.046;13.692;2023-04-08T00:08:28;100341.91;;;4.88
70819;BMP280;58439;51.046;13.692;2023-04-08T00:10:59;100344.63;;;4.86
70819;BMP280;58439;51.046;13.692;2023-04-08T00:13:26;100333.88;;;4.91
70819;BMP280;58439;51.046;13.692;2023-04-08T00:15:53;100341.03;;;4.97
70819;BMP280;58439;51.046;13.692;2023-04-08T00:18:21;100342.16;;;4.94
70819;BMP280;58439;51.046;13.692;2023-04-08T00:20:48;100348.28;;;4.93
70819;BMP280;58439;51.046;13.692;2023-04-08T00:23:15;100340.22;;;4.96
70819;BMP280;58439;51.046;13.692;2023-04-08T00:25:42;100333.09;;;4.98
70819;BMP280;58439;51.046;13.692;2023-04-08T00:28:10;100335.94;;;5.05
70819;BMP280;58439;51.046;13.692;2023-04-08T00:30:37;100332.53;;;5.04
70819;BMP280;58439;51.046;13.692;2023-04-08T00:33:04;100342.22;;;5.02
70819;BMP280;58439;51.046;13.692;2023-04-08T00:35:31;100340.31;;;5.04
70819;BMP280;58439;51.046;13.692;2023-04-08T00:37:58;100335.28;;;5.03
70819;BMP280;58439;51.046;13.692;2023-04-08T00:40:54;100340.31;;;5.04
70819;BMP280;58439;51.046;13.692;2023-04-08T00:43:22;100343.88;;;5.03
70819;BMP280;58439;51.046;13.692;2023-04-08T00:45:49;100342.38;;;5.01
70819;BMP280;58439;51.046;13.692;2023-04-08T00:48:16;100341.00;;;5.06
70819;BMP280;58439;51.046;13.692;2023-04-08T00:50:44;100339.88;;;5.09
70819;BMP280;58439;51.046;13.692;2023-04-08T00:53:17;100339.28;;;5.15
70819;BMP280;58439;51.046;13.692;2023-04-08T00:55:45;100344.31;;;5.17
70819;BMP280;58439;51.046;13.692;2023-04-08T00:58:13;100344.47;;;5.15
70819;BMP280;58439;51.046;13.692;2023-04-08T01:00:49;100348.69;;;5.16
70819;BMP280;58439;51.046;13.692;2023-04-08T01:03:56;100341.97;;;5.23
70819;BMP280;58439;51.046;13.692;2023-04-08T01:06:46;100340.34;;;5.22
70819;BMP280;58439;51.046;13.692;2023-04-08T01:09:20;100335.66;;;5.26
70819;BMP280;58439;51.046;13.692;2023-04-08T01:11:51;100332.41;;;5.24
70819;BMP280;58439;51.046;13.692;2023-04-08T01:14:22;100329.13;;;5.22
70819;BMP280;58439;51.046;13.692;2023-04-08T01:16:55;100335.97;;;5.23
70819;BMP280;58439;51.046;13.692;2023-04-08T01:19:32;100333.38;;;5.23
70819;BMP280;58439;51.046;13.692;2023-04-08T01:25:32;100330.63;;;5.24
70819;BMP280;58439;51.046;13.692;2023-04-08T01:28:07;100327.25;;;5.24
70819;BMP280;58439;51.046;13.692;2023-04-08T01:30:38;100333.25;;;5.24
70819;BMP280;58439;51.046;13.692;2023-04-08T01:33:09;100334.03;;;5.25
70819;BMP280;58439;51.046;13.692;2023-04-08T01:35:37;100326.13;;;5.26
70819;BMP280;58439;51.046;13.692;2023-04-08T01:38:08;100328.59;;;5.28
70819;BMP280;58439;51.046;13.692;2023-04-08T01:40:37;100335.53;;;5.27
70819;BMP280;58439;51.046;13.692;2023-04-08T01:43:12;100337.97;;;5.29
70819;BMP280;58439;51.046;13.692;2023-04-08T01:45:47;100335.38;;;5.29
70819;BMP280;58439;51.046;13.692;2023-04-08T01:48:15;100326.63;;;5.30
70819;BMP280;58439;51.046;13.692;2023-04-08T01:50:44;100324.56;;;5.33
70819;BMP280;58439;51.046;13.692;2023-04-08T01:53:12;100319.19;;;5.27
70819;BMP280;58439;51.046;13.692;2023-04-08T01:55:41;100327.38;;;5.22
70819;BMP280;58439;51.046;13.692;2023-04-08T01:58:16;100330.91;;;5.21
70819;BMP280;58439;51.046;13.692;2023-04-08T02:00:44;100328.63;;;5.18
70819;BMP280;58439;51.046;13.692;2023-04-08T02:03:16;100331.19;;;5.18
70819;BMP280;58439;51.046;13.692;2023-04-08T02:05:45;100338.03;;;5.19
70819;BMP280;58439;51.046;13.692;2023-04-08T02:08:12;100334.31;;;5.22
70819;BMP280;58439;51.046;13.692;2023-04-08T02:10:40;100336.63;;;5.25
70819;BMP280;58439;51.046;13.692;2023-04-08T02:13:07;100335.81;;;5.24
70819;BMP280;58439;51.046;13.692;2023-04-08T02:15:37;100338.94;;;5.28
70819;BMP280;58439;51.046;13.692;2023-04-08T02:18:15;100344.13;;;5.28
70819;BMP280;58439;51.046;13.692;2023-04-08T02:20:51;100344.75;;;5.30
70819;BMP280;58439;51.046;13.692;2023-04-08T02:23:23;100346.09;;;5.34
70819;BMP280;58439;51.046;13.692;2023-04-08T02:25:54;100345.00;;;5.37
70819;BMP280;58439;51.046;13.692;2023-04-08T02:28:27;100341.31;;;5.39
70819;BMP280;58439;51.046;13.692;2023-04-08T02:30:57;100337.06;;;5.38
70819;BMP280;58439;51.046;13.692;2023-04-08T02:33:26;100341.31;;;5.39
70819;BMP280;58439;51.046;13.692;2023-04-08T02:35:55;100344.19;;;5.36
70819;BMP280;58439;51.046;13.692;2023-04-08T02:38:23;100341.59;;;5.36
70819;BMP280;58439;51.046;13.692;2023-04-08T02:40:50;100344.63;;;5.31
70819;BMP280;58439;51.046;13.692;2023-04-08T02:43:17;100350.34;;;5.35
70819;BMP280;58439;51.046;13.692;2023-04-08T02:45:44;100343.22;;;5.37
70819;BMP280;58439;51.046;13.692;2023-04-08T02:48:14;100340.91;;;5.34
70819;BMP280;58439;51.046;13.692;2023-04-08T02:50:41;100356.34;;;5.36
70819;BMP280;58439;51.046;13.692;2023-04-08T02:53:08;100356.88;;;5.39
70819;BMP280;58439;51.046;13.692;2023-04-08T02:55:36;100357.25;;;5.44
70819;BMP280;58439;51.046;13.692;2023-04-08T02:58:03;100365.03;;;5.44
70819;BMP280;58439;51.046;13.692;2023-04-08T03:00:31;100353.03;;;5.43
70819;BMP280;58439;51.046;13.692;2023-04-08T03:02:58;100358.88;;;5.45
70819;BMP280;58439;51.046;13.692;2023-04-08T03:05:26;100361.84;;;5.50
70819;BMP280;58439;51.046;13.692;2023-04-08T03:07:53;100359.53;;;5.47
70819;BMP280;58439;51.046;13.692;2023-04-08T03:10:20;100354.34;;;5.47
70819;BMP280;58439;51.046;13.692;2023-04-08T03:12:47;100356.13;;;5.47
70819;BMP280;58439;51.046;13.692;2023-04-08T03:15:15;100354.81;;;5.43
70819;BMP280;58439;51.046;13.692;2023-04-08T03:17:42;100355.91;;;5.40
70819;BMP280;58439;51.046;13.692;2023-04-08T03:20:10;100353.31;;;5.40
70819;BMP280;58439;51.046;13.692;2023-04-08T03:22:37;100360.94;;;5.42
70819;BMP280;58439;51.046;13.692;2023-04-08T03:25:05;100357.53;;;5.41
70819;BMP280;58439;51.046;13.692;2023-04-08T03:27:32;100354.13;;;5.41
70819;BMP280;58439;51.046;13.692;2023-04-08T03:29:59;100353.84;;;5.44
70819;BMP280;58439;51.046;13.692;2023-04-08T03:32:27;100349.75;;;5.41
70819;BMP280;58439;51.046;13.692;2023-04-08T03:34:54;100351.53;;;5.41
70819;BMP280;58439;51.046;13.692;2023-04-08T03:37:21;100359.59;;;5.38
70819;BMP280;58439;51.046;13.692;2023-04-08T03:39:48;100351.53;;;5.41
70819;BMP280;58439;51.046;13.692;2023-04-08T03:42:15;100360.13;;;5.41
70819;BMP280;58439;51.046;13.692;2023-04-08T03:44:45;100352.34;;;5.41
70819;BMP280;58439;51.046;13.692;2023-04-08T03:47:12;100350.56;;;5.42
70819;BMP280;58439;51.046;13.692;2023-04-08T03:49:39;100347.84;;;5.43
70819;BMP280;58439;51.046;13.692;2023-04-08T03:52:07;100348.34;;;5.47
70819;BMP280;58439;51.046;13.692;2023-04-08T03:54:34;100349.00;;;5.49
70819;BMP280;58439;51.046;13.692;2023-04-08T03:57:01;100355.97;;;5.48
70819;BMP280;58439;51.046;13.692;2023-04-08T03:59:28;100354.06;;;5.50
70819;BMP280;58439;51.046;13.692;2023-04-08T04:01:55;100359.53;;;5.47
70819;BMP280;58439;51.046;13.692;2023-04-08T04:04:23;100359.09;;;5.52
70819;BMP280;58439;51.046;13.692;2023-04-08T04:06:50;100356.78;;;5.49
70819;BMP280;58439;51.046;13.692;2023-04-08T04:09:18;100363.19;;;5.54
70819;BMP280;58439;51.046;13.692;2023-04-08T04:11:46;100354.72;;;5.52
70819;BMP280;58439;51.046;13.692;2023-04-08T04:14:13;100363.31;;;5.53
70819;BMP280;58439;51.046;13.692;2023-04-08T04:16:40;100366.16;;;5.59
70819;BMP280;58439;51.046;13.692;2023-04-08T04:19:07;100366.31;;;5.58
70819;BMP280;58439;51.046;13.692;2023-04-08T04:21:37;100371.63;;;5.56
70819;BMP280;58439;51.046;13.692;2023-04-08T04:24:04;100371.34;;;5.59
70819;BMP280;58439;51.046;13.692;2023-04-08T04:26:32;100371.63;;;5.56
70819;BMP280;58439;51.046;13.692;2023-04-08T04:28:59;100372.59;;;5.55
70819;BMP280;58439;51.046;13.692;2023-04-08T04:31:27;100377.50;;;5.58
70819;BMP280;58439;51.046;13.692;2023-04-08T04:33:54;100369.84;;;5.57
70819;BMP280;58439;51.046;13.692;2023-04-08T04:36:21;100385.13;;;5.60
70819;BMP280;58439;51.046;13.692;2023-04-08T04:38:49;100376.22;;;5.63
70819;BMP280;58439;51.046;13.692;2023-04-08T04:41:17;100376.22;;;5.63
70819;BMP280;58439;51.046;13.692;2023-04-08T04:43:44;100378.94;;;5.61
70819;BMP280;58439;51.046;13.692;2023-04-08T04:46:12;100379.94;;;5.60
70819;BMP280;58439;51.046;13.692;2023-04-08T04:48:39;100382.69;;;5.58
70819;BMP280;58439;51.046;13.692;2023-04-08T04:51:06;100393.72;;;5.60
70819;BMP280;58439;51.046;13.692;2023-04-08T04:53:33;100394.69;;;5.59
70819;BMP280;58439;51.046;13.692;2023-04-08T04:56:01;100393.56;;;5.62
70819;BMP280;58439;51.046;13.692;2023-04-08T04:58:29;100400.91;;;5.67
70819;BMP280;58439;51.046;13.692;2023-04-08T05:00:57;100403.34;;;5.68
70819;BMP280;58439;51.046;13.692;2023-04-08T05:03:24;100404.69;;;5.72
70819;BMP280;58439;51.046;13.692;2023-04-08T05:05:52;100394.47;;;5.71
70819;BMP280;58439;51.046;13.692;2023-04-08T05:08:20;100401.97;;;5.74
70819;BMP280;58439;51.046;13.692;2023-04-08T05:10:48;100411.06;;;5.78
70819;BMP280;58439;51.046;13.692;2023-04-08T05:13:17;100406.19;;;5.75
70819;BMP280;58439;51.046;13.692;2023-04-08T05:15:44;100412.00;;;5.77
70819;BMP280;58439;51.046;13.692;2023-04-08T05:18:12;100406.31;;;5.73
70819;BMP280;58439;51.046;13.692;2023-04-08T05:20:41;100414.78;;;5.75
70819;BMP280;58439;51.046;13.692;2023-04-08T05:23:08;100414.59;;;5.77
70819;BMP280;58439;51.046;13.692;2023-04-08T05:25:36;100409.59;;;5.75
70819;BMP280;58439;51.046;13.692;2023-04-08T05:28:03;100406.81;;;5.77
70819;BMP280;58439;51.046;13.692;2023-04-08T05:30:30;100407.97;;;5.74
70819;BMP280;58439;51.046;13.692;2023-04-08T05:32:58;100413.81;;;5.76
70819;BMP280;58439;51.046;13.692;2023-04-08T05:35:27;100410.75;;;5.81
70819;BMP280;58439;51.046;13.692;2023-04-08T05:37:55;100419.88;;;5.85
70819;BMP280;58439;51.046;13.692;2023-04-08T05:40:22;100417.28;;;5.85
70819;BMP280;58439;51.046;13.692;2023-04-08T05:42:49;100421.81;;;5.83
70819;BMP280;58439;51.046;13.692;2023-04-08T05:45:16;100419.88;;;5.85
70819;BMP280;58439;51.046;13.692;2023-04-08T05:47:43;100430.81;;;5.89
70819;BMP280;58439;51.046;13.692;2023-04-08T05:50:11;100427.38;;;5.88
70819;BMP280;58439;51.046;13.692;2023-04-08T05:52:42;100433.06;;;5.92
70819;BMP280;58439;51.046;13.692;2023-04-08T05:55:13;100427.88;;;5.92
70819;BMP280;58439;51.046;13.692;2023-04-08T05:57:41;100427.84;;;5.83
70819;BMP280;58439;51.046;13.692;2023-04-08T06:00:09;100434.88;;;5.91
70819;BMP280;58439;51.046;13.692;2023-04-08T06:02:37;100432.91;;;5.93
70819;BMP280;58439;51.046;13.692;2023-04-08T06:05:05;100440.41;;;5.96
70819;BMP280;58439;51.046;13.692;2023-04-08T06:07:33;100440.78;;;6.01
70819;BMP280;58439;51.046;13.692;2023-04-08T06:10:01;100438.56;;;6.06
70819;BMP280;58439;51.046;13.692;2023-04-08T06:12:29;100444.13;;;6.11
70819;BMP280;58439;51.046;13.692;2023-04-08T06:14:56;100448.88;;;6.16
70819;BMP280;58439;51.046;13.692;2023-04-08T06:17:23;100447.41;;;6.13
70819;BMP280;58439;51.046;13.692;2023-04-08T06:19:50;100456.66;;;6.16
70819;BMP280;58439;51.046;13.692;2023-04-08T06:22:18;100450.19;;;6.20
70819;BMP280;58439;51.046;13.692;2023-04-08T06:24:47;100450.72;;;6.24
70819;BMP280;58439;51.046;13.692;2023-04-08T06:27:14;100453.81;;;6.27
70819;BMP280;58439;51.046;13.692;2023-04-08T06:29:42;100461.47;;;6.29
70819;BMP280;58439;51.046;13.692;2023-04-08T06:32:09;100465.72;;;6.30
70819;BMP280;58439;51.046;13.692;2023-04-08T06:34:37;100462.16;;;6.31
70819;BMP280;58439;51.046;13.692;2023-04-08T06:37:07;100468.34;;;6.38
70819;BMP280;58439;51.046;13.692;2023-04-08T06:39:34;100465.16;;;6.44
70819;BMP280;58439;51.046;13.692;2023-04-08T06:42:01;100468.75;;;6.51
70819;BMP280;58439;51.046;13.692;2023-04-08T06:44:38;100473.38;;;6.57
70819;BMP280;58439;51.046;13.692;2023-04-08T06:47:05;100469.16;;;6.64
70819;BMP280;58439;51.046;13.692;2023-04-08T06:49:33;100477.34;;;6.70
70819;BMP280;58439;51.046;13.692;2023-04-08T06:52:00;100476.56;;;6.77
70819;BMP280;58439;51.046;13.692;2023-04-08T06:54:35;100486.06;;;6.86
70819;BMP280;58439;51.046;13.692;2023-04-08T06:57:05;100487.19;;;6.92
70819;BMP280;58439;51.046;13.692;2023-04-08T06:59:43;100487.41;;;6.99
70819;BMP280;58439;51.046;13.692;2023-04-08T07:02:20;100490.66;;;7.01
70819;BMP280;58439;51.046;13.692;2023-04-08T07:04:49;100500.22;;;7.00
70819;BMP280;58439;51.046;13.692;2023-04-08T07:07:16;100501.88;;;7.01
70819;BMP280;58439;51.046;13.692;2023-04-08T07:09:43;100503.50;;;7.02
70819;BMP280;58439;51.046;13.692;2023-04-08T07:12:12;100507.06;;;7.01
70819;BMP280;58439;51.046;13.692;2023-04-08T07:14:42;100511.00;;;7.05
70819;BMP280;58439;51.046;13.692;2023-04-08T07:17:09;100515.06;;;7.08
70819;BMP280;58439;51.046;13.692;2023-04-08T07:19:36;100507.13;;;7.09
70819;BMP280;58439;51.046;13.692;2023-04-08T07:22:04;100519.66;;;7.14
70819;BMP280;58439;51.046;13.692;2023-04-08T07:24:31;100521.78;;;7.18
70819;BMP280;58439;51.046;13.692;2023-04-08T07:26:58;100520.53;;;7.23
70819;BMP280;58439;51.046;13.692;2023-04-08T07:29:26;100528.66;;;7.28
70819;BMP280;58439;51.046;13.692;2023-04-08T07:31:53;100529.97;;;7.32
70819;BMP280;58439;51.046;13.692;2023-04-08T07:34:20;100529.50;;;7.36
70819;BMP280;58439;51.046;13.692;2023-04-08T07:36:48;100526.47;;;7.49
70819;BMP280;58439;51.046;13.692;2023-04-08T07:39:16;100533.50;;;7.65
70819;BMP280;58439;51.046;13.692;2023-04-08T07:41:43;100533.06;;;7.86
70819;BMP280;58439;51.046;13.692;2023-04-08T07:44:10;100541.72;;;8.03
70819;BMP280;58439;51.046;13.692;2023-04-08T07:46:37;100541.56;;;8.04
70819;BMP280;58439;51.046;13.692;2023-04-08T07:49:05;100548.22;;;8.07
70819;BMP280;58439;51.046;13.692;2023-04-08T07:51:32;100551.19;;;8.12
70819;BMP280;58439;51.046;13.692;2023-04-08T07:54:00;100551.31;;;8.18
70819;BMP280;58439;51.046;13.692;2023-04-08T07:56:28;100553.47;;;8.23
70819;BMP280;58439;51.046;13.692;2023-04-08T07:58:55;100560.00;;;8.19
70819;BMP280;58439;51.046;13.692;2023-04-08T08:01:23;100562.72;;;8.09
70819;BMP280;58439;51.046;13.692;2023-04-08T08:03:51;100561.59;;;8.04
70819;BMP280;58439;51.046;13.692;2023-04-08T08:06:19;100565.16;;;8.03
70819;BMP280;58439;51.046;13.692;2023-04-08T08:08:46;100566.44;;;8.07
70819;BMP280;58439;51.046;13.692;2023-04-08T08:11:14;100564.69;;;8.15
70819;BMP280;58439;51.046;13.692;2023-04-08T08:13:41;100562.41;;;8.20
70819;BMP280;58439;51.046;13.692;2023-04-08T08:16:08;100563.56;;;8.34
70819;BMP280;58439;51.046;13.692;2023-04-08T08:18:39;100564.38;;;8.51
70819;BMP280;58439;51.046;13.692;2023-04-08T08:21:07;100570.06;;;8.71
70819;BMP280;58439;51.046;13.692;2023-04-08T08:23:35;100569.56;;;8.84
70819;BMP280;58439;51.046;13.692;2023-04-08T08:26:06;100569.81;;;9.05
70819;BMP280;58439;51.046;13.692;2023-04-08T08:28:33;100563.56;;;9.22
70819;BMP280;58439;51.046;13.692;2023-04-08T08:31:00;100573.03;;;9.23
70819;BMP280;58439;51.046;13.692;2023-04-08T08:33:28;100574.16;;;9.21
70819;BMP280;58439;51.046;13.692;2023-04-08T08:35:55;100572.03;;;9.16
70819;BMP280;58439;51.046;13.692;2023-04-08T08:38:24;100587.09;;;9.14
70819;BMP280;58439;51.046;13.692;2023-04-08T08:40:56;100578.59;;;9.12
70819;BMP280;58439;51.046;13.692;2023-04-08T08:43:24;100587.22;;;9.21
70819;BMP280;58439;51.046;13.692;2023-04-08T08:45:54;100582.94;;;9.28
70819;BMP280;58439;51.046;13.692;2023-04-08T08:48:21;100590.84;;;9.12
70819;BMP280;58439;51.046;13.692;2023-04-08T08:50:49;100589.56;;;8.99
70819;BMP280;58439;51.046;13.692;2023-04-08T08:53:16;100591.50;;;9.05
70819;BMP280;58439;51.046;13.692;2023-04-08T08:55:43;100602.56;;;9.16
70819;BMP280;58439;51.046;13.692;2023-04-08T08:58:30;100598.78;;;9.26
70819;BMP280;58439;51.046;13.692;2023-04-08T09:00:58;100603.94;;;9.51
70819;BMP280;58439;51.046;13.692;2023-04-08T09:03:27;100600.59;;;9.65
70819;BMP280;58439;51.046;13.692;2023-04-08T09:06:00;100601.97;;;9.76
70819;BMP280;58439;51.046;13.692;2023-04-08T09:08:31;100615.06;;;9.76
70819;BMP280;58439;51.046;13.692;2023-04-08T09:11:16;100610.81;;;9.75
70819;BMP280;58439;51.046;13.692;2023-04-08T09:13:45;100616.66;;;9.85
70819;BMP280;58439;51.046;13.692;2023-04-08T09:16:17;100613.44;;;9.98
70819;BMP280;58439;51.046;13.692;2023-04-08T09:18:47;100616.94;;;9.90
70819;BMP280;58439;51.046;13.692;2023-04-08T09:21:16;100619.28;;;9.77
70819;BMP280;58439;51.046;13.692;2023-04-08T09:23:49;100629.09;;;9.75
70819;BMP280;58439;51.046;13.692;2023-04-08T09:26:23;100628.47;;;9.64
70819;BMP280;58439;51.046;13.692;2023-04-08T09:29:07;100628.69;;;9.55
70819;BMP280;58439;51.046;13.692;2023-04-08T09:31:57;100626.44;;;9.52
70819;BMP280;58439;51.046;13.692;2023-04-08T09:34:25;100633.47;;;9.51
70819;BMP280;58439;51.046;13.692;2023-04-08T09:36:54;100623.28;;;9.56
70819;BMP280;58439;51.046;13.692;2023-04-08T09:39:22;100627.84;;;9.62
70819;BMP280;58439;51.046;13.692;2023-04-08T09:41:51;100635.13;;;9.75
70819;BMP280;58439;51.046;13.692;2023-04-08T09:44:20;100634.22;;;9.91
70819;BMP280;58439;51.046;13.692;2023-04-08T09:47:18;100626.50;;;9.98
70819;BMP280;58439;51.046;13.692;2023-04-08T09:49:54;100636.50;;;9.94
70819;BMP280;58439;51.046;13.692;2023-04-08T09:52:29;100636.84;;;9.91
70819;BMP280;58439;51.046;13.692;2023-04-08T09:55:05;100634.16;;;9.76
70819;BMP280;58439;51.046;13.692;2023-04-08T10:00:16;100631.72;;;9.75
70819;BMP280;58439;51.046;13.692;2023-04-08T10:02:55;100634.28;;;9.83
70819;BMP280;58439;51.046;13.692;2023-04-08T10:05:26;100639.28;;;9.92
70819;BMP280;58439;51.046;13.692;2023-04-08T10:07:55;100643.16;;;10.05
70819;BMP280;58439;51.046;13.692;2023-04-08T10:10:24;100638.75;;;10.28
70819;BMP280;58439;51.046;13.692;2023-04-08T10:12:52;100637.16;;;10.42
70819;BMP280;58439;51.046;13.692;2023-04-08T10:15:29;100640.50;;;10.51
70819;BMP280;58439;51.046;13.692;2023-04-08T10:23:04;100646.59;;;10.66
70819;BMP280;58439;51.046;13.692;2023-04-08T10:25:43;100648.72;;;10.47
70819;BMP280;58439;51.046;13.692;2023-04-08T10:30:55;100655.25;;;10.29
70819;BMP280;58439;51.046;13.692;2023-04-08T10:36:08;100657.25;;;10.18
70819;BMP280;58439;51.046;13.692;2023-04-08T10:38:40;100655.69;;;10.32
70819;BMP280;58439;51.046;13.692;2023-04-08T10:41:10;100653.03;;;10.40
70819;BMP280;58439;51.046;13.692;2023-04-08T10:43:47;100652.66;;;10.43
70819;BMP280;58439;51.046;13.692;2023-04-08T10:46:18;100653.25;;;10.54
70819;BMP280;58439;51.046;13.692;2023-04-08T10:48:59;100651.97;;;10.50
70819;BMP280;58439;51.046;13.692;2023-04-08T10:51:29;100655.19;;;10.37
70819;BMP280;58439;51.046;13.692;2023-04-08T10:54:12;100649.63;;;10.32
70819;BMP280;58439;51.046;13.692;2023-04-08T10:56:47;100649.56;;;10.40
70819;BMP280;58439;51.046;13.692;2023-04-08T10:59:17;100650.16;;;10.73
70819;BMP280;58439;51.046;13.692;2023-04-08T11:01:53;100652.97;;;10.86
70819;BMP280;58439;51.046;13.692;2023-04-08T11:04:21;100655.22;;;10.89
70819;BMP280;58439;51.046;13.692;2023-04-08T11:06:50;100651.22;;;10.79
70819;BMP280;58439;51.046;13.692;2023-04-08T11:09:20;100648.94;;;10.61
70819;BMP280;58439;51.046;13.692;2023-04-08T11:11:47;100655.28;;;10.43
70819;BMP280;58439;51.046;13.692;2023-04-08T11:14:16;100650.09;;;10.35
70819;BMP280;58439;51.046;13.692;2023-04-08T11:16:46;100650.72;;;10.23
70819;BMP280;58439;51.046;13.692;2023-04-08T11:19:14;100650.78;;;10.14
70819;BMP280;58439;51.046;13.692;2023-04-08T11:21:42;100655.25;;;10.06
70819;BMP280;58439;51.046;13.692;2023-04-08T11:24:10;100657.25;;;9.96
70819;BMP280;58439;51.046;13.692;2023-04-08T11:26:42;100661.22;;;9.83
70819;BMP280;58439;51.046;13.692;2023-04-08T11:29:13;100665.50;;;9.76
70819;BMP280;58439;51.046;13.692;2023-04-08T11:31:42;100673.72;;;9.57
70819;BMP280;58439;51.046;13.692;2023-04-08T11:34:10;100670.03;;;9.51
70819;BMP280;58439;51.046;13.692;2023-04-08T11:36:40;100676.06;;;9.52
70819;BMP280;58439;51.046;13.692;2023-04-08T11:39:08;100672.63;;;9.51
70819;BMP280;58439;51.046;13.692;2023-04-08T11:41:39;100670.84;;;9.52
70819;BMP280;58439;51.046;13.692;2023-04-08T11:44:07;100679.81;;;9.41
70819;BMP280;58439;51.046;13.692;2023-04-08T11:46:35;100685.91;;;9.33
70819;BMP280;58439;51.046;13.692;2023-04-08T11:49:06;100686.34;;;9.37
70819;BMP280;58439;51.046;13.692;2023-04-08T11:51:53;100686.78;;;9.57
70819;BMP280;58439;51.046;13.692;2023-04-08T11:54:30;100676.97;;;9.67
70819;BMP280;58439;51.046;13.692;2023-04-08T11:56:58;100680.31;;;9.84
70819;BMP280;58439;51.046;13.692;2023-04-08T11:59:26;100689.19;;;10.14
70819;BMP280;58439;51.046;13.692;2023-04-08T12:01:55;100671.25;;;10.48
70819;BMP280;58439;51.046;13.692;2023-04-08T12:04:23;100678.66;;;10.83
70819;BMP280;58439;51.046;13.692;2023-04-08T12:06:50;100684.56;;;10.99
70819;BMP280;58439;51.046;13.692;2023-04-08T12:09:18;100682.78;;;11.00
70819;BMP280;58439;51.046;13.692;2023-04-08T12:11:45;100686.53;;;10.97
70819;BMP280;58439;51.046;13.692;2023-04-08T12:14:13;100678.66;;;10.68
70819;BMP280;58439;51.046;13.692;2023-04-08T12:16:41;100684.91;;;10.36
70819;BMP280;58439;51.046;13.692;2023-04-08T12:19:08;100686.88;;;10.11
70819;BMP280;58439;51.046;13.692;2023-04-08T12:21:36;100684.16;;;10.04
70819;BMP280;58439;51.046;13.692;2023-04-08T12:24:04;100687.59;;;10.05
70819;BMP280;58439;51.046;13.692;2023-04-08T12:26:32;100693.44;;;10.07
70819;BMP280;58439;51.046;13.692;2023-04-08T12:28:59;100692.63;;;10.06
70819;BMP280;58439;51.046;13.692;2023-04-08T12:31:27;100700.38;;;9.91
70819;BMP280;58439;51.046;13.692;2023-04-08T12:33:55;100695.22;;;9.75
70819;BMP280;58439;51.046;13.692;2023-04-08T12:36:22;100702.59;;;9.63
70819;BMP280;58439;51.046;13.692;2023-04-08T12:38:49;100706.06;;;9.56
70819;BMP280;58439;51.046;13.692;2023-04-08T12:41:16;100708.03;;;9.54
70819;BMP280;58439;51.046;13.692;2023-04-08T12:43:44;100704.59;;;9.61
70819;BMP280;58439;51.046;13.692;2023-04-08T12:46:13;100713.78;;;9.49
70819;BMP280;58439;51.046;13.692;2023-04-08T12:48:40;100714.63;;;9.42
70819;BMP280;58439;51.046;13.692;2023-04-08T12:51:13;100710.53;;;9.39
70819;BMP280;58439;51.046;13.692;2023-04-08T12:53:40;100716.41;;;9.33
70819;BMP280;58439;51.046;13.692;2023-04-08T12:56:07;100716.25;;;9.26
70819;BMP280;58439;51.046;13.692;2023-04-08T12:58:34;100714.28;;;9.28
70819;BMP280;58439;51.046;13.692;2023-04-08T13:01:01;100720.66;;;9.26
70819;BMP280;58439;51.046;13.692;2023-04-08T13:03:29;100720.81;;;9.32
70819;BMP280;58439;51.046;13.692;2023-04-08T13:05:57;100721.00;;;9.23
70819;BMP280;58439;51.046;13.692;2023-04-08T13:08:25;100724.75;;;9.20
70819;BMP280;58439;51.046;13.692;2023-04-08T13:10:53;100719.66;;;9.35
70819;BMP280;58439;51.046;13.692;2023-04-08T13:13:21;100714.00;;;9.71
70819;BMP280;58439;51.046;13.692;2023-04-08T13:15:48;100719.97;;;9.96
70819;BMP280;58439;51.046;13.692;2023-04-08T13:18:15;100726.13;;;10.03
70819;BMP280;58439;51.046;13.692;2023-04-08T13:20:42;100725.25;;;10.18
70819;BMP280;58439;51.046;13.692;2023-04-08T13:23:09;100736.59;;;10.34
70819;BMP280;58439;51.046;13.692;2023-04-08T13:25:37;100733.06;;;10.50
70819;BMP280;58439;51.046;13.692;2023-04-08T13:28:04;100730.50;;;10.41
70819;BMP280;58439;51.046;13.692;2023-04-08T13:30:32;100726.81;;;10.51
70819;BMP280;58439;51.046;13.692;2023-04-08T13:32:59;100734.63;;;10.59
70819;BMP280;58439;51.046;13.692;2023-04-08T13:35:26;100733.59;;;10.68
70819;BMP280;58439;51.046;13.692;2023-04-08T13:37:53;100734.88;;;10.72
70819;BMP280;58439;51.046;13.692;2023-04-08T13:40:21;100731.88;;;10.75
70819;BMP280;58439;51.046;13.692;2023-04-08T13:42:48;100734.81;;;10.80
70819;BMP280;58439;51.046;13.692;2023-04-08T13:45:15;100738.91;;;10.74
70819;BMP280;58439;51.046;13.692;2023-04-08T13:47:43;100726.81;;;10.96
70819;BMP280;58439;51.046;13.692;2023-04-08T13:50:10;100731.53;;;11.16
70819;BMP280;58439;51.046;13.692;2023-04-08T13:52:37;100734.59;;;11.05
70819;BMP280;58439;51.046;13.692;2023-04-08T13:55:05;100735.97;;;10.78
70819;BMP280;58439;51.046;13.692;2023-04-08T13:57:32;100729.91;;;10.77
70819;BMP280;58439;51.046;13.692;2023-04-08T13:59:59;100730.19;;;10.82
70819;BMP280;58439;51.046;13.692;2023-04-08T14:02:27;100727.31;;;10.77
70819;BMP280;58439;51.046;13.692;2023-04-08T14:04:54;100737.09;;;10.75
70819;BMP280;58439;51.046;13.692;2023-04-08T14:07:22;100735.22;;;10.69
70819;BMP280;58439;51.046;13.692;2023-04-08T14:09:49;100745.19;;;10.65
70819;BMP280;58439;51.046;13.692;2023-04-08T14:12:18;100737.84;;;10.69
70819;BMP280;58439;51.046;13.692;2023-04-08T14:14:45;100741.13;;;10.63
70819;BMP280;58439;51.046;13.692;2023-04-08T14:17:12;100750.19;;;10.29
70819;BMP280;58439;51.046;13.692;2023-04-08T14:19:40;100738.44;;;9.94
70819;BMP280;58439;51.046;13.692;2023-04-08T14:22:07;100742.22;;;9.83